Time;durP1;ratioP1;P1;durP2;ratioP2;P2;SDS_P1;SDS_P2;PMS_P1;PMS_P2;Temp;Humidity;BMP_temperature;BMP_pressure;BME280_temperature;BME280_humidity;BME280_pressure;Samples;Min_cycle;Max_cycle;Signal;HPM_P1;HPM_P2
2022/04/07 00:02:13;;;;;;;3.93;2.33;;;;;;;9.95;78.03;99069.34;5013040;28;20257;-58
2022/04/07 00:04:39;;;;;;;3.23;2.30;;;;;;;9.91;78.51;99063.31;5019099;28;20714;-57
2022/04/07 00:07:06;;;;;;;4.77;3.07;;;;;;;9.87;78.42;99061.66;5022198;28;20733;-57
2022/04/07 00:09:32;;;;;;;7.70;2.30;;;;;;;9.93;78.95;99061.53;5019861;28;20294;-58
2022/04/07 00:11:58;;;;;;;2.80;1.80;;;;;;;9.86;79.03;99049.44;5013567;28;20976;-57
2022/04/07 00:14:25;;;;;;;5.23;2.73;;;;;;;9.83;79.22;99053.91;5013203;28;20237;-57
2022/04/07 00:16:54;;;;;;;2.77;2.17;;;;;;;9.84;79.33;99040.78;5017593;28;20232;-57
2022/04/07 00:19:22;;;;;;;4.23;2.43;;;;;;;9.73;79.70;99033.19;5014870;28;20253;-57
2022/04/07 00:21:49;;;;;;;4.30;2.70;;;;;;;9.76;80.10;99027.00;5020974;28;20740;-56
2022/04/07 00:24:15;;;;;;;3.27;2.73;;;;;;;9.75;80.09;99030.50;5020694;28;20236;-57
2022/04/07 00:26:41;;;;;;;4.80;2.23;;;;;;;9.80;80.21;99026.03;5022640;28;20233;-57
2022/04/07 00:29:08;;;;;;;3.17;2.40;;;;;;;9.78;80.46;99018.19;5021870;28;20236;-56
2022/04/07 00:31:39;;;;;;;3.33;2.40;;;;;;;9.77;80.45;99013.84;5023161;28;20237;-57
2022/04/07 00:34:07;;;;;;;2.93;2.67;;;;;;;9.80;80.38;99013.78;5015539;28;20260;-57
2022/04/07 00:36:34;;;;;;;7.67;2.90;;;;;;;9.68;80.94;99013.22;5022328;28;20784;-57
2022/04/07 00:39:00;;;;;;;4.30;2.47;;;;;;;9.64;80.87;99001.09;5017525;28;20229;-56
2022/04/07 00:41:26;;;;;;;3.13;2.30;;;;;;;9.62;81.38;99002.88;5016711;28;20351;-58
2022/04/07 00:43:53;;;;;;;3.47;2.60;;;;;;;9.57;81.74;99003.00;5011039;28;20262;-56
2022/04/07 00:46:19;;;;;;;3.83;2.53;;;;;;;9.56;81.59;98999.53;5018450;28;20275;-56
2022/04/07 00:48:46;;;;;;;5.33;2.70;;;;;;;9.52;82.10;98992.66;5015956;28;20232;-57
2022/04/07 00:51:13;;;;;;;2.87;2.27;;;;;;;9.66;81.36;98999.31;5021278;28;20224;-57
2022/04/07 00:53:41;;;;;;;7.60;2.43;;;;;;;9.60;81.42;98992.47;5022387;28;20710;-56
2022/04/07 00:56:08;;;;;;;3.57;2.27;;;;;;;9.60;81.53;98987.22;5019932;28;20252;-56
2022/04/07 00:58:36;;;;;;;2.90;2.60;;;;;;;9.54;81.67;98980.34;5019453;28;20845;-56
2022/04/07 01:01:02;;;;;;;3.87;3.00;;;;;;;9.55;82.11;98971.63;5020853;28;20299;-56
2022/04/07 01:03:28;;;;;;;6.57;2.90;;;;;;;9.61;81.78;98967.97;5014378;28;20702;-56
2022/04/07 01:05:55;;;;;;;2.93;2.53;;;;;;;9.59;81.47;98963.69;5018256;28;20336;-57
2022/04/07 01:08:22;;;;;;;2.70;2.50;;;;;;;9.55;81.67;98962.91;5028204;28;20586;-58
2022/04/07 01:10:50;;;;;;;4.47;2.13;;;;;;;9.48;82.40;98970.06;5021238;28;20934;-56
2022/04/07 01:13:16;;;;;;;3.47;2.67;;;;;;;9.44;82.69;98968.41;5007044;28;20795;-58
2022/04/07 01:15:43;;;;;;;3.47;2.27;;;;;;;9.49;82.47;98963.06;5021921;28;20245;-56
2022/04/07 01:18:09;;;;;;;3.60;3.00;;;;;;;9.47;82.76;98965.69;5011882;28;20372;-58
2022/04/07 01:20:35;;;;;;;4.40;2.77;;;;;;;9.45;82.80;98954.41;5018729;28;20317;-57
2022/04/07 01:23:02;;;;;;;4.20;2.50;;;;;;;9.51;82.95;98950.75;5020558;28;20240;-56
2022/04/07 01:25:30;;;;;;;3.67;2.90;;;;;;;9.54;82.72;98954.16;5022429;28;20244;-58
2022/04/07 01:27:56;;;;;;;3.43;2.50;;;;;;;9.52;82.43;98950.75;5013389;28;20236;-57
2022/04/07 01:30:23;;;;;;;18.00;14.23;;;;;;;9.47;82.87;98949.97;5020853;28;20233;-57
2022/04/07 01:32:52;;;;;;;5.77;2.90;;;;;;;9.47;83.36;98943.88;5022155;28;20269;-57
2022/04/07 01:35:21;;;;;;;5.07;2.80;;;;;;;9.41;83.43;98937.06;5019247;28;20730;-57
2022/04/07 01:37:48;;;;;;;4.90;3.03;;;;;;;9.33;83.70;98945.09;5021010;28;20232;-57
2022/04/07 01:40:17;;;;;;;2.97;2.37;;;;;;;9.42;83.51;98933.53;5016608;28;20706;-57
2022/04/07 01:42:46;;;;;;;3.00;2.37;;;;;;;9.43;83.68;98927.38;5015144;28;20302;-57
2022/04/07 01:45:13;;;;;;;4.03;2.60;;;;;;;9.29;84.63;98926.88;5026094;28;20279;-57
2022/04/07 01:47:41;;;;;;;5.70;2.93;;;;;;;9.33;84.64;98929.38;5018354;28;20276;-57
2022/04/07 01:50:09;;;;;;;6.27;2.80;;;;;;;9.34;84.17;98922.41;5027455;28;20267;-57
2022/04/07 01:52:36;;;;;;;5.03;2.60;;;;;;;9.38;84.60;98929.28;5016236;28;20304;-58
2022/04/07 01:55:04;;;;;;;3.13;2.73;;;;;;;9.32;84.68;98921.56;5001162;28;20742;-57
2022/04/07 01:57:31;;;;;;;4.70;2.93;;;;;;;9.28;85.34;98920.78;5001957;28;20318;-58
2022/04/07 01:59:59;;;;;;;3.00;2.70;;;;;;;9.23;85.31;98916.53;5001426;28;20284;-57
2022/04/07 02:02:26;;;;;;;2.83;2.63;;;;;;;9.19;85.59;98914.91;5025406;28;20295;-58
2022/04/07 02:04:56;;;;;;;3.73;3.03;;;;;;;9.24;86.18;98913.91;5022034;28;20331;-57
2022/04/07 02:07:23;;;;;;;8.47;3.17;;;;;;;9.17;86.19;98911.47;5022216;28;20252;-57
2022/04/07 02:09:50;;;;;;;4.00;3.60;;;;;;;9.22;86.01;98909.59;5016283;28;20228;-56
2022/04/07 02:12:20;;;;;;;5.10;3.20;;;;;;;9.16;87.01;98905.38;5021618;28;20575;-57
2022/04/07 02:14:46;;;;;;;3.60;3.17;;;;;;;9.12;87.20;98908.09;5015283;28;20236;-58
2022/04/07 02:17:15;;;;;;;3.10;2.80;;;;;;;9.13;87.62;98899.38;5022950;28;20314;-57
2022/04/07 02:19:41;;;;;;;6.07;4.00;;;;;;;9.09;87.80;98898.59;5021372;28;20715;-57
2022/04/07 02:22:07;;;;;;;4.73;4.07;;;;;;;9.06;88.18;98896.91;5023637;28;20796;-57
2022/04/07 02:24:37;;;;;;;3.47;3.17;;;;;;;9.06;88.28;98894.28;5020135;28;20662;-56
2022/04/07 02:27:04;;;;;;;4.40;4.00;;;;;;;9.04;88.58;98897.81;5021500;28;20294;-57
2022/04/07 02:29:30;;;;;;;5.13;4.23;;;;;;;9.02;88.83;98897.88;5023416;28;20256;-57
2022/04/07 02:31:56;;;;;;;5.73;3.87;;;;;;;9.00;89.06;98888.34;5023310;28;20590;-57
2022/04/07 02:34:24;;;;;;;4.83;3.27;;;;;;;9.15;88.99;98884.47;5016104;28;20706;-57
2022/04/07 02:36:50;;;;;;;9.07;4.10;;;;;;;9.01;89.18;98880.44;5022930;28;20264;-58
2022/04/07 02:39:17;;;;;;;7.37;4.53;;;;;;;8.96;89.57;98882.31;5015497;28;20764;-57
2022/04/07 02:41:43;;;;;;;4.43;3.67;;;;;;;8.96;89.93;98868.38;5023525;28;20232;-56
2022/04/07 02:44:09;;;;;;;5.10;4.70;;;;;;;8.90;90.54;98866.75;5024553;28;20739;-57
2022/04/07 02:46:36;;;;;;;7.37;4.30;;;;;;;8.93;91.05;98874.53;5026950;28;20877;-57
2022/04/07 02:49:03;;;;;;;6.23;3.93;;;;;;;8.94;90.58;98867.53;5018788;28;20232;-58
2022/04/07 02:51:31;;;;;;;5.00;4.50;;;;;;;8.91;90.50;98871.06;5027130;28;20434;-58
2022/04/07 02:53:58;;;;;;;6.10;4.27;;;;;;;8.95;90.79;98862.28;5025476;28;20262;-57
2022/04/07 02:56:24;;;;;;;6.30;4.70;;;;;;;8.86;91.41;98865.09;5024558;28;20241;-58
2022/04/07 02:58:51;;;;;;;4.83;4.43;;;;;;;8.84;91.56;98862.53;5022620;28;20251;-57
2022/04/07 03:01:17;;;;;;;4.47;4.03;;;;;;;8.84;91.76;98866.88;5025865;28;20232;-57
2022/04/07 03:03:44;;;;;;;4.83;4.30;;;;;;;8.85;91.59;98863.41;5027033;28;20290;-56
2022/04/07 03:06:10;;;;;;;5.07;4.30;;;;;;;8.82;91.91;98861.72;5025767;28;20236;-68
2022/04/07 03:08:38;;;;;;;6.93;4.50;;;;;;;8.78;92.25;98848.75;5019341;28;20322;-56
2022/04/07 03:11:05;;;;;;;6.57;4.77;;;;;;;8.85;92.16;98842.47;5023858;28;20251;-58
2022/04/07 03:13:32;;;;;;;6.37;3.90;;;;;;;8.78;92.53;98846.13;5031685;28;20721;-57
2022/04/07 03:15:59;;;;;;;5.83;4.60;;;;;;;8.78;92.62;98843.50;5027378;28;20240;-57
2022/04/07 03:18:25;;;;;;;6.70;4.30;;;;;;;8.72;93.13;98830.56;5025041;28;20650;-57
2022/04/07 03:20:51;;;;;;;6.37;4.47;;;;;;;8.72;93.18;98830.56;5025207;28;20734;-57
2022/04/07 03:23:18;;;;;;;4.30;3.90;;;;;;;8.72;93.12;98820.97;5028418;28;20236;-57
2022/04/07 03:25:46;;;;;;;6.70;4.50;;;;;;;8.76;92.96;98822.59;5023563;28;20861;-57
2022/04/07 03:28:12;;;;;;;4.50;4.10;;;;;;;8.74;93.08;98810.44;5023442;28;20280;-57
2022/04/07 03:30:38;;;;;;;6.37;4.70;;;;;;;8.69;93.19;98809.72;5023629;28;20677;-59
2022/04/07 03:33:06;;;;;;;7.63;3.83;;;;;;;8.78;93.07;98793.78;5024715;28;20236;-56
2022/04/07 03:35:32;;;;;;;5.47;4.23;;;;;;;8.73;92.98;98804.34;5005930;28;20344;-56
2022/04/07 03:37:58;;;;;;;7.47;4.47;;;;;;;8.80;92.71;98798.06;4995001;28;20361;-56
2022/04/07 03:40:25;;;;;;;7.30;4.20;;;;;;;8.77;93.17;98799.91;5016656;28;20299;-57
2022/04/07 03:42:53;;;;;;;4.10;3.77;;;;;;;8.74;93.10;98802.59;5025555;28;20249;-59
2022/04/07 03:45:20;;;;;;;5.47;4.63;;;;;;;8.71;93.38;98807.94;5023471;28;20248;-60
2022/04/07 03:47:47;;;;;;;4.03;3.57;;;;;;;8.70;93.55;98801.81;5019514;28;20714;-57
2022/04/07 03:50:13;;;;;;;5.13;4.10;;;;;;;8.72;93.90;98793.94;5010044;28;20259;-56
2022/04/07 03:52:40;;;;;;;4.43;4.03;;;;;;;8.73;93.70;98798.25;5029311;28;20285;-58
2022/04/07 03:55:07;;;;;;;8.60;4.30;;;;;;;8.78;93.60;98799.03;5027411;28;20355;-56
2022/04/07 03:57:33;;;;;;;5.43;4.27;;;;;;;8.78;93.21;98788.56;5025128;28;20286;-57
2022/04/07 04:00:01;;;;;;;5.43;3.83;;;;;;;8.75;93.62;98793.88;5012154;28;20318;-56
2022/04/07 04:02:28;;;;;;;5.33;3.80;;;;;;;8.86;93.25;98797.06;5015941;28;20314;-58
2022/04/07 04:04:54;;;;;;;5.70;4.23;;;;;;;8.93;93.01;98785.53;5010493;28;20252;-56
2022/04/07 04:07:20;;;;;;;6.23;4.13;;;;;;;8.89;93.24;98783.91;5019653;28;20302;-57
2022/04/07 04:09:47;;;;;;;3.87;3.57;;;;;;;8.90;93.12;98777.78;5010601;28;20236;-57
2022/04/07 04:12:14;;;;;;;4.77;4.10;;;;;;;8.89;93.48;98780.44;5021461;28;20725;-57
2022/04/07 04:14:40;;;;;;;7.20;4.73;;;;;;;8.91;93.34;98783.84;5014696;28;20653;-58
2022/04/07 04:17:08;;;;;;;4.83;3.93;;;;;;;8.90;93.77;98766.44;5020144;28;20848;-57
2022/04/07 04:19:34;;;;;;;4.63;4.23;;;;;;;8.97;92.84;98763.63;5018794;28;20267;-57
2022/04/07 04:22:00;;;;;;;5.73;4.43;;;;;;;9.06;92.78;98758.16;5023325;28;20290;-57
2022/04/07 04:24:27;;;;;;;6.80;4.13;;;;;;;9.05;92.89;98756.41;5018569;28;20256;-57
2022/04/07 04:26:53;;;;;;;6.03;3.83;;;;;;;9.12;92.33;98743.16;5022540;28;20289;-56
2022/04/07 04:29:19;;;;;;;5.70;3.77;;;;;;;9.05;92.47;98745.94;5017418;28;20291;-57
2022/04/07 04:31:45;;;;;;;6.10;4.97;;;;;;;9.23;92.19;98738.50;5024555;28;20264;-57
2022/04/07 04:34:13;;;;;;;5.27;4.53;;;;;;;9.12;92.52;98735.31;5021742;28;20278;-57
2022/04/07 04:36:39;;;;;;;4.13;3.60;;;;;;;9.14;92.63;98730.91;5021519;28;20714;-58
2022/04/07 04:39:06;;;;;;;4.53;3.70;;;;;;;9.12;92.65;98736.16;5012998;28;20229;-57
2022/04/07 04:41:32;;;;;;;5.20;4.10;;;;;;;9.02;93.08;98722.50;5016098;28;20252;-57
2022/04/07 04:44:00;;;;;;;5.07;3.93;;;;;;;9.07;93.15;98722.38;5022069;28;20236;-57
2022/04/07 04:46:26;;;;;;;4.33;3.93;;;;;;;9.07;92.50;98723.22;5018834;28;20315;-57
2022/04/07 04:48:52;;;;;;;4.27;3.87;;;;;;;9.08;92.84;98722.31;5010953;28;20902;-57
2022/04/07 04:51:20;;;;;;;6.97;4.30;;;;;;;9.12;92.48;98714.38;5021414;28;20248;-58
2022/04/07 04:53:46;;;;;;;4.67;4.10;;;;;;;9.18;92.41;98703.75;5022185;28;22888;-57
2022/04/07 04:56:13;;;;;;;6.13;4.53;;;;;;;9.17;92.42;98717.75;5018361;28;20241;-57
2022/04/07 04:58:39;;;;;;;3.93;3.53;;;;;;;9.12;92.56;98703.91;5022138;28;20625;-57
2022/04/07 05:01:05;;;;;;;5.17;3.57;;;;;;;9.11;93.13;98699.56;5014817;28;20753;-56
2022/04/07 05:03:32;;;;;;;6.30;3.63;;;;;;;9.21;92.24;98701.03;5022105;28;20271;-56
2022/04/07 05:05:58;;;;;;;3.90;3.60;;;;;;;9.16;92.04;98690.72;5020318;28;20232;-56
2022/04/07 05:08:26;;;;;;;3.97;3.40;;;;;;;9.13;92.56;98684.69;5027199;28;20650;-56
2022/04/07 05:10:52;;;;;;;4.17;3.70;;;;;;;9.11;92.72;98686.50;5024892;28;20343;-57
2022/04/07 05:13:18;;;;;;;3.80;3.50;;;;;;;9.18;92.32;98693.28;5017186;28;20221;-57
2022/04/07 05:15:45;;;;;;;5.63;3.77;;;;;;;9.13;92.84;98680.31;5019562;28;20675;-57
2022/04/07 05:18:11;;;;;;;3.40;3.10;;;;;;;9.22;92.24;98679.19;5023416;28;20314;-56
2022/04/07 05:20:37;;;;;;;4.20;3.27;;;;;;;9.15;92.44;98677.66;5014175;28;20287;-56
2022/04/07 05:23:04;;;;;;;2.83;2.63;;;;;;;9.16;92.70;98675.00;5020885;28;20232;-57
2022/04/07 05:25:32;;;;;;;5.87;3.13;;;;;;;9.21;92.43;98672.25;5017396;28;20232;-57
2022/04/07 05:27:58;;;;;;;3.97;2.93;;;;;;;9.23;92.62;98670.41;5017547;28;20599;-57
2022/04/07 05:30:24;;;;;;;4.33;2.73;;;;;;;9.18;92.80;98669.69;5008249;28;20794;-57
2022/04/07 05:32:50;;;;;;;3.50;3.00;;;;;;;9.16;92.93;98654.06;5012680;28;20282;-57
2022/04/07 05:35:17;;;;;;;4.80;3.73;;;;;;;9.16;93.10;98663.63;5021888;28;20236;-57
2022/04/07 05:37:43;;;;;;;9.47;3.87;;;;;;;9.20;93.40;98665.28;5024065;28;20228;-56
2022/04/07 05:40:11;;;;;;;4.27;3.10;;;;;;;9.20;93.35;98649.59;5013116;28;20287;-57
2022/04/07 05:42:39;;;;;;;16.97;3.80;;;;;;;9.25;92.73;98652.91;5014941;28;20279;-57
2022/04/07 05:45:06;;;;;;;3.23;2.87;;;;;;;9.30;92.54;98645.78;5020736;28;20318;-57
2022/04/07 05:47:39;;;;;;;5.83;3.13;;;;;;;9.32;92.67;98657.06;5024158;28;20900;-57
2022/04/07 05:50:06;;;;;;;5.83;3.30;;;;;;;9.26;93.28;98644.16;5020038;28;20284;-56
2022/04/07 05:52:32;;;;;;;3.47;2.87;;;;;;;9.35;92.60;98638.66;5023947;28;20735;-56
2022/04/07 05:54:58;;;;;;;2.67;2.47;;;;;;;9.38;92.41;98632.47;5022117;28;20245;-56
2022/04/07 05:57:26;;;;;;;3.00;2.80;;;;;;;9.37;93.13;98635.97;5020963;28;20310;-57
2022/04/07 05:59:54;;;;;;;3.20;2.90;;;;;;;9.48;91.90;98629.53;5022658;28;20229;-57
2022/04/07 06:02:20;;;;;;;5.30;3.30;;;;;;;9.54;91.69;98639.78;5024253;28;20228;-57
2022/04/07 06:04:47;;;;;;;3.13;2.90;;;;;;;9.53;91.57;98629.38;5024681;28;20286;-56
2022/04/07 06:07:13;;;;;;;9.33;3.07;;;;;;;9.47;92.09;98638.25;5014494;28;20283;-57
2022/04/07 06:09:40;;;;;;;3.13;2.83;;;;;;;9.55;92.05;98636.28;5022487;28;20726;-57
2022/04/07 06:12:09;;;;;;;3.70;2.90;;;;;;;9.66;91.40;98637.72;5006509;28;20233;-56
2022/04/07 06:14:35;;;;;;;3.03;2.73;;;;;;;9.70;91.03;98624.47;5007884;28;20229;-58
2022/04/07 06:17:03;;;;;;;4.90;3.10;;;;;;;9.76;91.31;98628.69;5021522;28;20741;-57
2022/04/07 06:19:29;;;;;;;4.57;2.87;;;;;;;9.83;nan;98629.31;5023531;28;20314;-56
2022/04/07 06:21:56;;;;;;;3.23;2.93;;;;;;;9.94;89.29;98622.84;5026479;28;20264;-57
2022/04/07 06:24:22;;;;;;;5.07;2.30;;;;;;;10.06;88.68;98610.22;5037211;28;20780;-56
2022/04/07 06:26:49;;;;;;;7.47;3.40;;;;;;;10.18;88.10;98609.81;5018181;28;20764;-57
2022/04/07 06:29:15;;;;;;;3.13;2.13;;;;;;;10.17;87.27;98610.72;5025844;28;20228;-57
2022/04/07 06:31:42;;;;;;;5.10;2.50;;;;;;;10.22;86.83;98612.31;5025821;28;20640;-59
2022/04/07 06:34:09;;;;;;;3.30;2.50;;;;;;;10.29;86.22;98606.88;5041792;28;20224;-56
2022/04/07 06:36:36;;;;;;;2.43;2.23;;;;;;;10.34;85.81;98611.03;5024934;28;20317;-56
2022/04/07 06:39:03;;;;;;;2.37;2.20;;;;;;;10.38;85.64;98617.03;5025750;28;20383;-57
2022/04/07 06:41:29;;;;;;;2.83;2.63;;;;;;;10.35;85.56;98611.91;5021127;28;22453;-57
2022/04/07 06:43:56;;;;;;;3.30;2.10;;;;;;;10.41;86.41;98611.69;5030053;28;20279;-57
2022/04/07 06:46:22;;;;;;;3.70;2.10;;;;;;;10.23;89.33;98600.03;5034814;28;20272;-57
2022/04/07 06:48:48;;;;;;;2.20;2.00;;;;;;;10.05;89.94;98583.16;5036048;28;20232;-58
2022/04/07 06:51:17;;;;;;;2.40;1.73;;;;;;;10.01;90.95;98585.03;5029468;28;20389;-55
2022/04/07 06:53:43;;;;;;;4.73;2.67;;;;;;;10.11;89.43;98577.72;5027324;28;20290;-57
2022/04/07 06:56:10;;;;;;;11.23;3.80;;;;;;;10.18;88.88;98573.97;5027651;28;20236;-57
2022/04/07 06:58:36;;;;;;;6.97;3.10;;;;;;;10.33;88.14;98580.50;5029576;28;20600;-58
2022/04/07 07:01:03;;;;;;;1.77;1.67;;;;;;;10.31;88.38;98574.44;5025189;28;20240;-58
2022/04/07 07:03:29;;;;;;;2.27;2.10;;;;;;;10.39;86.97;98567.16;5024364;28;20302;-57
2022/04/07 07:05:58;;;;;;;3.27;2.40;;;;;;;10.58;85.82;98566.50;5014030;28;20262;-58
2022/04/07 07:08:26;;;;;;;2.17;2.00;;;;;;;10.48;85.42;98564.19;5032476;28;20319;-57
2022/04/07 07:10:52;;;;;;;7.83;6.67;;;;;;;10.53;85.12;98553.56;5024688;28;20264;-58
2022/04/07 07:13:23;;;;;;;2.27;2.17;;;;;;;10.54;85.04;98568.38;5026233;28;20689;-60
2022/04/07 07:15:50;;;;;;;4.40;2.47;;;;;;;10.64;84.51;98559.28;5027520;28;20237;-59
2022/04/07 07:18:16;;;;;;;2.53;2.20;;;;;;;10.72;84.02;98549.34;5024241;28;20306;-59
2022/04/07 07:20:43;;;;;;;2.43;2.00;;;;;;;10.88;82.71;98540.88;5020118;28;20240;-60
2022/04/07 07:23:09;;;;;;;3.33;2.53;;;;;;;10.92;82.30;98540.75;5014489;28;20609;-60
2022/04/07 07:25:37;;;;;;;2.80;1.90;;;;;;;10.95;80.59;98545.88;5013632;28;20657;-60
2022/04/07 07:28:05;;;;;;;7.60;2.93;;;;;;;10.98;80.12;98545.72;5018124;28;20240;-61
2022/04/07 07:30:32;;;;;;;4.33;2.33;;;;;;;11.01;80.20;98522.91;5022654;28;20894;-59
2022/04/07 07:32:58;;;;;;;4.33;2.27;;;;;;;11.15;79.15;98537.22;5029949;28;20240;-60
2022/04/07 07:35:25;;;;;;;3.70;2.10;;;;;;;11.25;78.99;98521.13;5025675;28;20298;-61
2022/04/07 07:37:53;;;;;;;2.43;2.20;;;;;;;11.31;78.16;98498.09;5030459;28;20244;-59
2022/04/07 07:40:21;;;;;;;5.43;1.90;;;;;;;11.40;77.43;98495.06;5021323;28;20225;-59
2022/04/07 07:42:49;;;;;;;3.20;1.83;;;;;;;11.41;77.09;98502.06;5023798;28;20224;-62
2022/04/07 07:45:16;;;;;;;4.47;4.00;;;;;;;11.48;76.30;98502.66;5032452;28;20286;-59
2022/04/07 07:47:42;;;;;;;2.07;1.60;;;;;;;11.63;75.56;98506.44;5018714;28;20728;-59
2022/04/07 07:50:09;;;;;;;2.50;1.30;;;;;;;11.65;74.98;98489.69;5024801;28;20290;-59
2022/04/07 07:52:36;;;;;;;4.63;1.30;;;;;;;11.72;74.83;98477.13;5020999;28;20228;-59
2022/04/07 07:55:03;;;;;;;3.27;2.10;;;;;;;11.81;74.26;98486.41;5025141;28;20292;-58
2022/04/07 07:57:30;;;;;;;1.43;1.33;;;;;;;11.87;72.83;98479.16;5025961;28;20314;-58
2022/04/07 07:59:58;;;;;;;1.73;1.50;;;;;;;11.92;72.94;98456.13;5026544;28;20236;-58
2022/04/07 08:02:25;;;;;;;2.67;1.53;;;;;;;11.96;72.96;98461.25;5017020;28;20224;-58
2022/04/07 08:04:51;;;;;;;3.33;1.73;;;;;;;12.05;72.84;98466.13;5024871;28;20221;-59
2022/04/07 08:07:18;;;;;;;1.27;1.17;;;;;;;11.98;73.23;98451.56;5021717;28;20812;-59
2022/04/07 08:09:44;;;;;;;3.67;1.47;;;;;;;12.09;72.95;98451.94;5022394;28;20957;-58
2022/04/07 08:12:11;;;;;;;2.07;1.40;;;;;;;12.10;72.99;98437.84;5025462;28;20271;-60
2022/04/07 08:14:37;;;;;;;1.83;1.30;;;;;;;12.08;73.07;98450.22;5026268;28;20328;-59
2022/04/07 08:17:05;;;;;;;1.90;1.47;;;;;;;12.18;73.62;98435.75;5015310;28;20245;-66
2022/04/07 08:19:32;;;;;;;1.90;1.37;;;;;;;12.43;73.20;98426.75;5005452;28;20477;-59
2022/04/07 08:21:58;;;;;;;1.83;1.53;;;;;;;12.59;72.72;98430.38;5023659;28;20244;-59
2022/04/07 08:24:24;;;;;;;1.60;1.20;;;;;;;12.67;71.53;98433.53;5024760;28;20260;-59
2022/04/07 08:26:51;;;;;;;1.42;1.33;;;;;;;12.71;72.02;98429.81;5019459;28;20241;-59
2022/04/07 08:29:17;;;;;;;3.22;1.35;;;;;;;12.61;71.88;98428.53;5018327;28;20499;-60
2022/04/07 08:31:43;;;;;;;1.33;1.23;;;;;;;12.50;72.43;98420.28;5016105;28;20257;-60
2022/04/07 08:34:11;;;;;;;1.67;1.57;;;;;;;12.49;72.42;98402.75;5021310;28;20274;-59
2022/04/07 08:36:39;;;;;;;1.30;1.20;;;;;;;12.79;69.90;98411.88;5007594;28;20268;-59
2022/04/07 08:39:06;;;;;;;1.70;1.50;;;;;;;12.69;70.34;98407.13;5021258;28;20228;-60
2022/04/07 08:41:34;;;;;;;3.65;1.20;;;;;;;12.60;70.09;98411.88;5022396;28;20294;-59
2022/04/07 08:44:00;;;;;;;0.90;0.90;;;;;;;12.57;69.89;98395.38;5023660;28;20240;-59
2022/04/07 08:46:28;;;;;;;2.17;1.07;;;;;;;12.55;70.46;98392.81;5024415;28;20252;-58
2022/04/07 08:48:56;;;;;;;2.83;1.50;;;;;;;12.62;70.13;98393.38;5019042;28;20240;-59
2022/04/07 08:51:26;;;;;;;1.53;1.17;;;;;;;12.68;69.31;98395.72;5016537;28;20260;-58
2022/04/07 08:53:52;;;;;;;1.43;1.10;;;;;;;12.53;70.10;98409.59;5026133;28;20725;-56
2022/04/07 08:56:18;;;;;;;1.20;1.10;;;;;;;12.51;69.87;98395.66;5022853;28;20263;-55
2022/04/07 08:58:45;;;;;;;1.42;1.17;;;;;;;12.27;70.62;98410.78;5016906;28;20305;-57
2022/04/07 09:01:11;;;;;;;1.00;1.00;;;;;;;12.30;70.75;98393.09;5020034;28;20260;-59
2022/04/07 09:03:38;;;;;;;1.67;1.17;;;;;;;12.24;71.11;98396.00;5022235;28;20311;-57
2022/04/07 09:06:05;;;;;;;3.27;1.30;;;;;;;12.23;71.47;98386.41;5022760;28;20271;-58
2022/04/07 09:08:35;;;;;;;1.70;1.23;;;;;;;12.31;71.67;98371.09;5026954;28;20232;-59
2022/04/07 09:11:03;;;;;;;1.57;1.20;;;;;;;12.32;71.90;98386.00;5023479;28;20229;-61
2022/04/07 09:13:31;;;;;;;1.00;1.00;;;;;;;12.44;71.83;98362.66;5022503;28;20244;-58
2022/04/07 09:16:00;;;;;;;3.47;3.17;;;;;;;12.59;71.01;98359.31;5025390;28;20726;-57
2022/04/07 09:18:26;;;;;;;0.97;0.90;;;;;;;12.70;70.55;98349.09;5020231;28;20236;-58
2022/04/07 09:20:53;;;;;;;4.17;1.13;;;;;;;12.68;70.37;98348.34;5029246;28;20236;-58
2022/04/07 09:23:19;;;;;;;2.17;1.10;;;;;;;12.79;69.63;98338.13;5021623;28;20307;-58
2022/04/07 09:25:49;;;;;;;1.20;0.77;;;;;;;12.70;70.20;98329.81;5021981;28;21075;-59
2022/04/07 09:28:28;;;;;;;1.00;0.98;;;;;;;12.69;69.86;98325.50;5017606;28;20278;-58
2022/04/07 09:30:56;;;;;;;1.85;0.70;;;;;;;12.72;69.46;98312.19;5022490;28;21602;-60
2022/04/07 09:33:23;;;;;;;1.13;0.95;;;;;;;12.77;68.95;98313.66;5019157;28;20784;-59
2022/04/07 09:36:05;;;;;;;1.13;0.70;;;;;;;12.76;69.62;98304.06;5024305;28;20236;-58
2022/04/07 09:38:32;;;;;;;0.50;0.50;;;;;;;12.83;68.90;98297.56;5014415;28;20324;-61
2022/04/07 09:41:08;;;;;;;13.47;1.27;;;;;;;12.94;68.56;98319.88;5019570;28;20758;-58
2022/04/07 09:43:46;;;;;;;0.80;0.80;;;;;;;13.03;68.31;98286.03;5023328;28;20240;-56
2022/04/07 09:46:13;;;;;;;1.02;0.73;;;;;;;13.00;67.60;98277.44;5021257;28;20306;-59
2022/04/07 09:48:40;;;;;;;2.00;0.88;;;;;;;12.95;67.41;98287.34;5011367;28;20530;-58
2022/04/07 09:51:08;;;;;;;1.23;0.70;;;;;;;12.96;67.60;98275.91;5025389;28;20614;-58
2022/04/07 09:53:37;;;;;;;1.60;0.80;;;;;;;13.00;66.81;98280.06;5025267;28;20679;-58
2022/04/07 09:56:06;;;;;;;3.60;2.00;;;;;;;13.03;66.34;98257.06;5022707;28;20434;-57
2022/04/07 09:58:33;;;;;;;1.20;0.63;;;;;;;13.02;66.50;98265.03;5028980;28;20986;-60
2022/04/07 10:01:01;;;;;;;1.20;0.60;;;;;;;12.94;65.76;98252.25;5026014;28;20956;-57
2022/04/07 10:03:28;;;;;;;2.00;0.90;;;;;;;12.90;65.83;98255.97;5020535;28;20736;-58
2022/04/07 10:05:54;;;;;;;0.88;0.80;;;;;;;12.93;65.89;98233.91;5020356;28;20335;-58
2022/04/07 10:08:21;;;;;;;0.80;0.80;;;;;;;12.90;65.91;98217.31;5022620;28;20236;-58
2022/04/07 10:10:48;;;;;;;1.58;0.70;;;;;;;12.83;66.29;98229.09;5024913;28;20537;-60
2022/04/07 10:13:16;;;;;;;1.05;0.82;;;;;;;13.04;65.68;98199.97;5023601;28;20224;-59
2022/04/07 10:15:43;;;;;;;0.60;0.60;;;;;;;13.01;64.78;98211.50;5025296;28;20241;-59
2022/04/07 10:18:17;;;;;;;0.60;0.60;;;;;;;13.02;65.08;98201.81;5011276;28;20286;-58
2022/04/07 10:20:47;;;;;;;1.25;0.52;;;;;;;13.03;65.04;98193.84;5013707;28;20787;-58
2022/04/07 10:23:22;;;;;;;0.88;0.80;;;;;;;12.99;65.32;98187.03;5027472;28;20224;-58
2022/04/07 10:25:49;;;;;;;2.10;1.02;;;;;;;12.86;65.89;98171.00;5025458;28;20232;-58
2022/04/07 10:28:19;;;;;;;2.28;0.90;;;;;;;12.99;65.95;98157.22;5017610;28;20229;-60
2022/04/07 10:30:49;;;;;;;2.35;2.15;;;;;;;13.00;66.45;98169.47;5013899;28;20324;-60
2022/04/07 10:33:35;;;;;;;1.58;1.00;;;;;;;13.01;65.93;98152.72;5020803;28;20244;-59
2022/04/07 10:36:08;;;;;;;1.70;0.82;;;;;;;13.03;65.87;98137.69;5021760;28;20232;-59
2022/04/07 10:38:39;;;;;;;0.70;0.70;;;;;;;12.99;64.84;98155.44;5020362;28;20229;-59
2022/04/07 10:41:05;;;;;;;0.73;0.73;;;;;;;12.96;64.16;98138.94;5024065;28;20263;-59
2022/04/07 10:43:38;;;;;;;1.77;0.73;;;;;;;13.02;64.72;98117.53;5016943;28;20734;-56
2022/04/07 10:46:14;;;;;;;1.38;0.80;;;;;;;13.01;65.62;98098.25;5016028;28;20247;-59
2022/04/07 10:48:45;;;;;;;1.33;0.98;;;;;;;12.82;68.44;98100.16;5018243;28;20236;-57
2022/04/07 10:51:12;;;;;;;1.10;1.08;;;;;;;12.44;71.64;98091.63;5031337;28;20225;-57
2022/04/07 10:53:40;;;;;;;0.80;0.80;;;;;;;12.22;74.41;98105.00;5027443;28;20237;-58
2022/04/07 10:56:08;;;;;;;1.10;0.90;;;;;;;11.84;78.35;98090.19;5027462;28;20310;-59
2022/04/07 10:58:44;;;;;;;1.00;0.90;;;;;;;11.57;81.90;98067.81;5021163;28;20287;-59
2022/04/07 11:01:15;;;;;;;1.90;1.20;;;;;;;11.39;83.36;98072.19;5017294;28;20224;-61
2022/04/07 11:03:42;;;;;;;0.80;0.80;;;;;;;11.29;84.70;98055.97;5013401;28;20619;-59
2022/04/07 11:06:10;;;;;;;1.03;0.97;;;;;;;11.32;84.44;98055.00;5023763;28;20241;-58
2022/04/07 11:08:37;;;;;;;1.70;1.40;;;;;;;11.32;83.12;98044.50;5025655;28;20232;-58
2022/04/07 11:11:03;;;;;;;1.10;1.00;;;;;;;11.45;82.84;98043.84;5027095;28;20232;-58
2022/04/07 11:13:44;;;;;;;2.77;1.10;;;;;;;11.60;81.21;98023.00;5011118;28;20389;-58
2022/04/07 11:16:15;;;;;;;1.47;0.90;;;;;;;11.74;79.63;98025.81;5004799;28;20256;-61
2022/04/07 11:18:50;;;;;;;3.83;1.23;;;;;;;11.82;79.54;98020.16;5003378;28;20325;-60
2022/04/07 11:21:17;;;;;;;0.87;0.83;;;;;;;11.90;79.26;98004.91;5018010;28;20315;-59
2022/04/07 11:23:45;;;;;;;2.33;1.13;;;;;;;11.96;78.55;98001.09;5027425;28;20297;-59
2022/04/07 11:26:13;;;;;;;1.77;0.90;;;;;;;12.03;78.56;98000.72;5027813;28;20650;-58
2022/04/07 11:28:40;;;;;;;7.38;1.08;;;;;;;12.14;76.78;97992.25;5019264;28;20473;-60
2022/04/07 11:31:07;;;;;;;2.90;1.00;;;;;;;12.16;76.42;97972.00;5025066;28;20225;-58
2022/04/07 11:33:39;;;;;;;2.13;1.10;;;;;;;12.23;76.79;97957.59;5022493;28;20299;-58
2022/04/07 11:36:14;;;;;;;3.17;0.80;;;;;;;12.23;75.32;97938.34;5020094;28;20267;-59
2022/04/07 11:38:44;;;;;;;1.43;0.70;;;;;;;12.24;74.10;97945.31;5025271;28;20232;-61
2022/04/07 11:41:11;;;;;;;3.00;0.70;;;;;;;12.29;74.12;97945.94;5024561;28;20704;-61